createdAt,value
2019-05-30T00:00:16.007Z,1000.09
2019-05-30T00:01:06.454Z,1000.04
2019-05-30T00:02:05.427Z,1000.07
2019-05-30T00:03:05.414Z,1000.04
2019-05-30T00:04:05.418Z,1000.08
2019-05-30T00:05:05.392Z,1000.06
2019-05-30T00:06:05.383Z,1000.11
2019-05-30T00:07:05.392Z,1000.08
2019-05-30T00:08:05.357Z,1000.10
2019-05-30T00:09:05.349Z,1000.19
2019-05-30T00:10:05.335Z,1000.07
2019-05-30T00:11:05.325Z,1000.10
2019-05-30T00:12:05.322Z,1000.10
2019-05-30T00:13:05.328Z,1000.07
2019-05-30T00:14:05.297Z,1000.14
2019-05-30T00:15:06.480Z,1000.09
2019-05-30T00:16:05.752Z,1000.06
2019-05-30T00:17:05.261Z,1000.12
2019-05-30T00:18:05.245Z,1000.08
2019-05-30T00:19:05.254Z,1000.10
2019-05-30T00:20:05.902Z,1000.07
2019-05-30T00:21:05.209Z,1000.09
2019-05-30T00:22:05.562Z,1000.08
2019-05-30T00:23:05.189Z,1000.08
2019-05-30T00:24:06.190Z,1000.09
2019-05-30T00:25:06.276Z,1000.04
2019-05-30T00:26:05.152Z,1000.08
2019-05-30T00:27:06.519Z,1000.05
2019-05-30T00:28:05.334Z,1000.04
2019-05-30T00:29:05.126Z,1000.09
2019-05-30T00:30:05.110Z,1000.05
2019-05-30T00:31:05.120Z,1000.04
2019-05-30T00:32:05.320Z,1000.03
2019-05-30T00:33:05.280Z,1000.08
2019-05-30T00:34:05.934Z,1000.11
2019-05-30T00:35:05.931Z,1000.09
2019-05-30T00:36:05.963Z,1000.07
2019-05-30T00:37:06.056Z,1000.05
2019-05-30T00:38:06.110Z,1000.11
2019-05-30T00:39:06.549Z,1000.12
2019-05-30T00:40:06.120Z,1000.12
2019-05-30T00:41:06.101Z,1000.16
2019-05-30T00:42:06.105Z,1000.13
2019-05-30T00:43:06.187Z,1000.10
2019-05-30T00:44:06.175Z,1000.13
2019-05-30T00:45:19.676Z,1000.08
2019-05-30T00:46:06.281Z,1000.08
2019-05-30T00:47:04.910Z,1000.06
2019-05-30T00:48:04.902Z,1000.10
2019-05-30T00:49:04.915Z,1000.05
2019-05-30T00:50:04.873Z,1000.06
2019-05-30T00:51:04.866Z,1000.06
2019-05-30T00:52:05.153Z,1000.03
2019-05-30T00:53:05.400Z,1000.08
2019-05-30T00:54:04.836Z,1000.05
2019-05-30T00:55:04.840Z,1000.03
2019-05-30T00:56:04.845Z,1000.00
2019-05-30T00:57:04.993Z,1000.01
2019-05-30T00:58:04.907Z,1000.03
2019-05-30T00:59:04.950Z,1000.00
2019-05-30T01:00:05.035Z,1000.04
2019-05-30T01:01:05.135Z,1000.07
2019-05-30T01:02:04.976Z,999.97
2019-05-30T01:03:06.704Z,1000.01
2019-05-30T01:04:05.012Z,1000.05
2019-05-30T01:05:05.134Z,999.99
2019-05-30T01:06:05.019Z,999.99
2019-05-30T01:07:05.220Z,999.96
2019-05-30T01:08:05.189Z,999.96
2019-05-30T01:09:05.136Z,999.97
2019-05-30T01:10:05.230Z,1000.02
2019-05-30T01:11:05.307Z,999.97
2019-05-30T01:12:05.266Z,1000.00
2019-05-30T01:13:05.200Z,999.96
2019-05-30T01:14:05.438Z,1000.02
2019-05-30T01:15:05.170Z,1000.02
2019-05-30T01:16:05.490Z,999.99
2019-05-30T01:17:05.330Z,1000.03
2019-05-30T01:18:05.328Z,999.97
2019-05-30T01:19:05.293Z,999.99
2019-05-30T01:20:05.293Z,1000.03
2019-05-30T01:21:05.399Z,999.99
2019-05-30T01:22:05.527Z,999.95
2019-05-30T01:23:05.369Z,1000.02
2019-05-30T01:24:05.631Z,1000.04
2019-05-30T01:25:05.936Z,1000.01
2019-05-30T01:26:05.461Z,999.95
2019-05-30T01:27:05.540Z,999.97
2019-05-30T01:28:05.588Z,1000.01
2019-05-30T01:29:05.477Z,999.97
2019-05-30T01:30:05.644Z,1000.00
2019-05-30T01:31:09.141Z,1000.03
2019-05-30T01:32:05.603Z,999.96
2019-05-30T01:33:05.761Z,999.99
2019-05-30T01:34:05.746Z,999.98
2019-05-30T01:35:04.366Z,999.97
2019-05-30T01:36:04.358Z,999.99
2019-05-30T01:37:04.368Z,999.96
2019-05-30T01:38:04.332Z,1000.01
2019-05-30T01:39:04.322Z,999.96
2019-05-30T01:40:04.484Z,999.99
2019-05-30T01:41:04.296Z,999.96
2019-05-30T01:42:04.287Z,999.96
2019-05-30T01:43:04.294Z,999.93
2019-05-30T01:44:04.261Z,999.92
2019-05-30T01:45:04.274Z,999.93
2019-05-30T01:46:04.336Z,999.92
2019-05-30T01:47:04.241Z,999.91
2019-05-30T01:48:04.696Z,999.88
2019-05-30T01:49:04.420Z,999.92
2019-05-30T01:50:04.421Z,999.86
2019-05-30T01:51:04.603Z,999.84
2019-05-30T01:52:04.517Z,999.87
2019-05-30T01:53:04.639Z,999.91
2019-05-30T01:54:04.566Z,999.86
2019-05-30T01:55:04.663Z,999.86
2019-05-30T01:56:04.796Z,999.88
2019-05-30T01:57:04.671Z,999.85
2019-05-30T01:58:05.034Z,999.84
2019-05-30T01:59:04.782Z,999.84
2019-05-30T02:00:07.828Z,999.86
2019-05-30T02:01:21.373Z,999.84
2019-05-30T02:02:05.185Z,999.80
2019-05-30T02:03:04.993Z,999.79
2019-05-30T02:04:05.204Z,999.82
2019-05-30T02:05:05.079Z,999.83
2019-05-30T02:06:05.473Z,999.83
2019-05-30T02:07:05.124Z,999.80
2019-05-30T02:08:05.112Z,999.85
2019-05-30T02:09:05.227Z,999.85
2019-05-30T02:10:03.966Z,999.81
2019-05-30T02:11:03.960Z,999.84
2019-05-30T02:12:03.950Z,999.84
2019-05-30T02:13:03.953Z,999.82
2019-05-30T02:14:03.923Z,999.88
2019-05-30T02:15:03.914Z,999.92
2019-05-30T02:16:03.900Z,999.87
2019-05-30T02:17:03.887Z,999.84
2019-05-30T02:18:03.883Z,999.91
2019-05-30T02:19:03.892Z,999.90
2019-05-30T02:20:03.872Z,999.89
2019-05-30T02:21:03.846Z,999.89
2019-05-30T02:22:03.830Z,999.88
2019-05-30T02:23:05.683Z,999.93
2019-05-30T02:24:03.862Z,999.90
2019-05-30T02:25:03.984Z,999.88
2019-05-30T02:26:04.213Z,999.90
2019-05-30T02:27:04.161Z,999.93
2019-05-30T02:28:04.099Z,999.93
2019-05-30T02:29:04.183Z,999.93
2019-05-30T02:30:06.045Z,999.92
2019-05-30T02:31:05.329Z,999.88
2019-05-30T02:32:04.981Z,999.88
2019-05-30T02:33:05.324Z,999.91
2019-05-30T02:34:05.376Z,999.89
2019-05-30T02:35:05.148Z,999.94
2019-05-30T02:36:05.859Z,999.99
2019-05-30T02:37:05.472Z,999.96
2019-05-30T02:38:05.106Z,999.96
2019-05-30T02:39:04.908Z,999.96
2019-05-30T02:40:05.934Z,999.97
2019-05-30T02:41:05.716Z,999.95
2019-05-30T02:42:05.185Z,999.91
2019-05-30T02:43:05.388Z,999.96
2019-05-30T02:44:05.303Z,999.98
2019-05-30T02:45:05.473Z,1000.00
2019-05-30T02:46:05.692Z,999.97
2019-05-30T02:47:05.437Z,1000.00
2019-05-30T02:48:05.350Z,1000.00
2019-05-30T02:49:04.927Z,1000.00
2019-05-30T02:50:04.412Z,1000.01
2019-05-30T02:51:05.389Z,999.94
2019-05-30T02:52:04.741Z,999.92
2019-05-30T02:53:03.726Z,999.94
2019-05-30T02:54:04.036Z,999.88
2019-05-30T02:55:03.872Z,999.97
2019-05-30T02:56:03.712Z,999.99
2019-05-30T02:57:03.686Z,999.93
2019-05-30T02:58:03.766Z,999.93
2019-05-30T02:59:03.926Z,999.94
2019-05-30T03:00:04.674Z,999.96
2019-05-30T03:01:04.002Z,999.93
2019-05-30T03:02:07.264Z,999.91
2019-05-30T03:03:06.203Z,999.96
2019-05-30T03:04:04.037Z,999.96
2019-05-30T03:05:04.021Z,999.93
2019-05-30T03:06:03.861Z,999.99
2019-05-30T03:07:04.100Z,999.93
2019-05-30T03:08:04.951Z,1000.00
2019-05-30T03:09:03.928Z,999.97
2019-05-30T03:10:05.144Z,999.95
2019-05-30T03:11:05.098Z,1000.01
2019-05-30T03:12:04.091Z,999.99
2019-05-30T03:13:04.124Z,1000.01
2019-05-30T03:14:04.335Z,1000.05
2019-05-30T03:15:05.226Z,1000.05
2019-05-30T03:16:04.664Z,1000.05
2019-05-30T03:17:05.342Z,1000.05
2019-05-30T03:18:04.708Z,1000.04
2019-05-30T03:19:03.832Z,1000.05
2019-05-30T03:20:10.989Z,1000.08
2019-05-30T03:21:05.769Z,1000.03
2019-05-30T03:22:04.756Z,1000.05
2019-05-30T03:23:05.275Z,1000.06
2019-05-30T03:24:04.951Z,1000.06
2019-05-30T03:25:05.028Z,1000.01
2019-05-30T03:26:04.783Z,1000.08
2019-05-30T03:27:04.806Z,1000.08
2019-05-30T03:28:05.080Z,1000.09
2019-05-30T03:29:05.022Z,1000.09
2019-05-30T03:30:05.110Z,1000.09
2019-05-30T03:31:08.901Z,1000.10
2019-05-30T03:32:39.720Z,1000.09
2019-05-30T03:33:17.173Z,1000.11
2019-05-30T03:34:08.253Z,1000.09
2019-05-30T03:35:09.197Z,1000.08
2019-05-30T03:36:09.197Z,1000.12
2019-05-30T03:37:06.246Z,1000.12
2019-05-30T03:38:05.648Z,1000.12
2019-05-30T03:39:03.312Z,1000.15
2019-05-30T03:40:02.942Z,1000.15
2019-05-30T03:41:04.636Z,1000.13
2019-05-30T03:42:04.424Z,1000.19
2019-05-30T03:43:04.090Z,1000.19
2019-05-30T03:44:04.024Z,1000.21
2019-05-30T03:45:04.216Z,1000.20
2019-05-30T03:46:04.045Z,1000.19
2019-05-30T03:47:03.891Z,1000.19
2019-05-30T03:48:04.283Z,1000.19
2019-05-30T03:49:04.347Z,1000.19
2019-05-30T03:50:04.614Z,1000.21
2019-05-30T03:51:04.156Z,1000.19
2019-05-30T03:52:05.038Z,1000.22
2019-05-30T03:53:04.621Z,1000.25
2019-05-30T03:54:04.806Z,1000.28
2019-05-30T03:55:04.759Z,1000.27
2019-05-30T03:56:04.466Z,1000.30
2019-05-30T03:57:04.623Z,1000.28
2019-05-30T03:58:02.725Z,1000.24
2019-05-30T03:59:02.727Z,1000.26
2019-05-30T04:00:02.705Z,1000.24
2019-05-30T04:01:02.739Z,1000.25
2019-05-30T04:02:02.690Z,1000.27
2019-05-30T04:03:02.679Z,1000.23
2019-05-30T04:04:02.658Z,1000.24
2019-05-30T04:05:02.682Z,1000.21
2019-05-30T04:06:02.656Z,1000.22
2019-05-30T04:07:02.726Z,1000.28
2019-05-30T04:08:02.612Z,1000.23
2019-05-30T04:09:02.610Z,1000.27
2019-05-30T04:10:02.600Z,1000.28
2019-05-30T04:11:02.582Z,1000.30
2019-05-30T04:12:02.567Z,1000.29
2019-05-30T04:13:02.670Z,1000.27
2019-05-30T04:14:02.543Z,1000.33
2019-05-30T04:15:02.531Z,1000.29
2019-05-30T04:16:02.520Z,1000.26
2019-05-30T04:17:02.552Z,1000.30
2019-05-30T04:18:02.498Z,1000.33
2019-05-30T04:19:02.516Z,1000.35
2019-05-30T04:20:02.475Z,1000.35
2019-05-30T04:21:02.465Z,1000.35
2019-05-30T04:22:02.460Z,1000.37
2019-05-30T04:23:02.520Z,1000.36
2019-05-30T04:24:02.432Z,1000.41
2019-05-30T04:25:02.441Z,1000.37
2019-05-30T04:26:02.414Z,1000.41
2019-05-30T04:27:02.393Z,1000.38
2019-05-30T04:28:02.378Z,1000.39
2019-05-30T04:29:02.368Z,1000.38
2019-05-30T04:30:02.362Z,1000.44
2019-05-30T04:31:02.383Z,1000.41
2019-05-30T04:32:02.347Z,1000.48
2019-05-30T04:33:17.214Z,1000.44
2019-05-30T04:34:03.312Z,1000.46
2019-05-30T04:35:02.304Z,1000.47
2019-05-30T04:36:02.287Z,1000.49
2019-05-30T04:37:02.304Z,1000.45
2019-05-30T04:38:02.270Z,1000.49
2019-05-30T04:39:02.358Z,1000.45
2019-05-30T04:40:02.258Z,1000.45
2019-05-30T04:41:02.234Z,1000.48
2019-05-30T04:42:02.227Z,1000.43
2019-05-30T04:43:02.238Z,1000.52
2019-05-30T04:44:02.201Z,1000.51
2019-05-30T04:45:02.199Z,1000.54
2019-05-30T04:46:02.176Z,1000.51
2019-05-30T04:47:02.167Z,1000.56
2019-05-30T04:48:02.161Z,1000.55
2019-05-30T04:49:02.176Z,1000.57
2019-05-30T04:50:02.134Z,1000.53
2019-05-30T04:51:02.121Z,1000.58
2019-05-30T04:52:02.114Z,1000.57
2019-05-30T04:53:02.121Z,1000.58
2019-05-30T04:54:02.089Z,1000.57
2019-05-30T04:55:02.104Z,1000.60
2019-05-30T04:56:02.068Z,1000.63
2019-05-30T04:57:02.068Z,1000.62
2019-05-30T04:58:02.041Z,1000.62
2019-05-30T04:59:02.038Z,1000.68
2019-05-30T05:00:02.042Z,1000.62
2019-05-30T05:01:02.026Z,1000.67
2019-05-30T05:02:01.995Z,1000.64
2019-05-30T05:03:01.998Z,1000.67
2019-05-30T05:04:01.978Z,1000.70
2019-05-30T05:05:01.959Z,1000.68
2019-05-30T05:06:01.961Z,1000.72
2019-05-30T05:07:01.957Z,1000.71
2019-05-30T05:08:01.954Z,1000.71
2019-05-30T05:09:01.933Z,1000.77
2019-05-30T05:10:01.909Z,1000.69
2019-05-30T05:11:01.890Z,1000.71
2019-05-30T05:12:01.886Z,1000.74
2019-05-30T05:13:01.891Z,1000.76
2019-05-30T05:14:01.857Z,1000.73
2019-05-30T05:15:01.852Z,1000.70
2019-05-30T05:16:01.839Z,1000.68
2019-05-30T05:17:01.822Z,1000.68
2019-05-30T05:18:01.813Z,1000.60
2019-05-30T05:19:01.823Z,1000.67
2019-05-30T05:20:01.787Z,1000.74
2019-05-30T05:21:01.775Z,1000.75
2019-05-30T05:22:01.761Z,1000.72
2019-05-30T05:23:01.761Z,1000.79
2019-05-30T05:24:01.744Z,1000.79
2019-05-30T05:25:01.753Z,1000.81
2019-05-30T05:26:01.734Z,1000.77
2019-05-30T05:27:01.703Z,1000.79
2019-05-30T05:28:01.695Z,1000.77
2019-05-30T05:29:01.677Z,1000.76
2019-05-30T05:30:01.666Z,1000.79
2019-05-30T05:31:01.673Z,1000.74
2019-05-30T05:32:01.638Z,1000.73
2019-05-30T05:33:01.701Z,1000.75
2019-05-30T05:34:01.622Z,1000.79
2019-05-30T05:35:01.613Z,1000.78
2019-05-30T05:36:01.590Z,1000.78
2019-05-30T05:37:01.595Z,1000.83
2019-05-30T05:38:01.570Z,1000.75
2019-05-30T05:39:01.557Z,1000.81
2019-05-30T05:40:01.544Z,1000.80
2019-05-30T05:41:01.528Z,1000.80
2019-05-30T05:42:01.517Z,1000.87
2019-05-30T05:43:01.528Z,1000.88
2019-05-30T05:44:01.494Z,1000.93
2019-05-30T05:45:01.485Z,1000.91
2019-05-30T05:46:01.469Z,1000.90
2019-05-30T05:47:01.455Z,1000.89
2019-05-30T05:48:01.442Z,1000.91
2019-05-30T05:49:01.458Z,1000.92
2019-05-30T05:50:01.420Z,1000.91
2019-05-30T05:51:01.408Z,1000.92
2019-05-30T05:52:01.395Z,1000.94
2019-05-30T05:53:01.385Z,1000.94
2019-05-30T05:54:01.373Z,1000.90
2019-05-30T05:55:01.382Z,1000.85
2019-05-30T05:56:01.347Z,1000.97
2019-05-30T05:57:01.335Z,1000.95
2019-05-30T05:58:04.227Z,1000.97
2019-05-30T05:59:01.318Z,1000.97
2019-05-30T06:00:01.297Z,1000.98
2019-05-30T06:01:01.305Z,1000.99
2019-05-30T06:02:01.280Z,1000.95
2019-05-30T06:03:01.263Z,1000.98
2019-05-30T06:04:12.537Z,1001.06
2019-05-30T06:05:02.236Z,1001.08
2019-05-30T06:06:01.271Z,1001.08
2019-05-30T06:07:01.252Z,1001.15
2019-05-30T06:08:01.204Z,1001.10
2019-05-30T06:09:01.199Z,1001.13
2019-05-30T06:10:01.179Z,1001.18
2019-05-30T06:11:01.170Z,1001.19
2019-05-30T06:12:01.157Z,1001.20
2019-05-30T06:13:01.171Z,1001.23
2019-05-30T06:14:01.135Z,1001.24
2019-05-30T06:15:01.286Z,1001.28
2019-05-30T06:16:01.108Z,1001.25
2019-05-30T06:17:01.096Z,1001.24
2019-05-30T06:18:01.084Z,1001.23
2019-05-30T06:19:01.096Z,1001.25
2019-05-30T06:20:01.057Z,1001.25
2019-05-30T06:21:01.046Z,1001.20
2019-05-30T06:22:01.062Z,1001.27
2019-05-30T06:23:01.024Z,1001.27
2019-05-30T06:24:01.014Z,1001.27
2019-05-30T06:25:01.031Z,1001.27
2019-05-30T06:26:00.988Z,1001.20
2019-05-30T06:27:00.977Z,1001.18
2019-05-30T06:28:00.980Z,1001.21
2019-05-30T06:29:00.951Z,1001.21
2019-05-30T06:30:00.945Z,1001.11
2019-05-30T06:31:00.952Z,1001.12
2019-05-30T06:32:00.915Z,1001.04
2019-05-30T06:33:00.906Z,1001.14
2019-05-30T06:34:00.896Z,1001.12
2019-05-30T06:35:00.917Z,1001.13
2019-05-30T06:36:00.881Z,1001.12
2019-05-30T06:37:00.935Z,1001.15
2019-05-30T06:38:00.854Z,1001.13
2019-05-30T06:39:00.834Z,1001.07
2019-05-30T06:40:00.825Z,1001.16
2019-05-30T06:41:00.822Z,1001.12
2019-05-30T06:42:00.805Z,1001.10
2019-05-30T06:43:00.809Z,1001.10
2019-05-30T06:44:00.787Z,1001.10
2019-05-30T06:45:00.769Z,1001.15
2019-05-30T06:46:00.752Z,1001.15
2019-05-30T06:47:00.742Z,1001.12
2019-05-30T06:48:00.730Z,1001.14
2019-05-30T06:49:00.740Z,1001.14
2019-05-30T06:50:00.727Z,1001.23
2019-05-30T06:51:00.694Z,1001.23
2019-05-30T06:52:00.685Z,1001.21
2019-05-30T06:53:00.673Z,1001.24
2019-05-30T06:54:00.665Z,1001.28
2019-05-30T06:55:00.674Z,1001.26
2019-05-30T06:56:00.641Z,1001.29
2019-05-30T06:57:00.632Z,1001.23
2019-05-30T06:58:00.615Z,1001.23
2019-05-30T06:59:00.609Z,1001.24
2019-05-30T07:00:00.591Z,1001.21
2019-05-30T07:01:00.596Z,1001.25
2019-05-30T07:02:00.571Z,1001.29
2019-05-30T07:03:00.597Z,1001.24
2019-05-30T07:04:00.668Z,1001.29
2019-05-30T07:05:01.304Z,1001.30
2019-05-30T07:06:00.931Z,1001.29
2019-05-30T07:07:00.833Z,1001.33
2019-05-30T07:08:00.501Z,1001.26
2019-05-30T07:09:00.491Z,1001.26
2019-05-30T07:10:00.481Z,1001.34
2019-05-30T07:11:00.469Z,1001.32
2019-05-30T07:12:00.454Z,1001.29
2019-05-30T07:13:00.462Z,1001.33
2019-05-30T07:14:00.430Z,1001.38
2019-05-30T07:15:00.418Z,1001.39
2019-05-30T07:16:00.410Z,1001.41
2019-05-30T07:17:00.399Z,1001.36
2019-05-30T07:18:00.386Z,1001.40
2019-05-30T07:19:00.393Z,1001.39
2019-05-30T07:20:00.362Z,1001.40
2019-05-30T07:21:00.355Z,1001.41
2019-05-30T07:22:00.342Z,1001.41
2019-05-30T07:23:00.329Z,1001.42
2019-05-30T07:24:00.319Z,1001.47
2019-05-30T07:25:00.381Z,1001.49
2019-05-30T07:26:03.381Z,1001.49
2019-05-30T07:27:00.283Z,1001.48
2019-05-30T07:28:00.272Z,1001.53
2019-05-30T07:29:00.844Z,1001.55
2019-05-30T07:30:00.251Z,1001.61
2019-05-30T07:31:00.255Z,1001.59
2019-05-30T07:32:00.227Z,1001.56
2019-05-30T07:33:00.215Z,1001.54
2019-05-30T07:34:00.204Z,1001.57
2019-05-30T07:35:06.979Z,1001.56
2019-05-30T07:36:01.204Z,1001.58
2019-05-30T07:37:00.166Z,1001.58
2019-05-30T07:38:00.175Z,1001.63
2019-05-30T07:39:00.144Z,1001.56
2019-05-30T07:40:00.135Z,1001.53
2019-05-30T07:41:00.121Z,1001.56
2019-05-30T07:42:06.105Z,1001.57
2019-05-30T07:43:01.105Z,1001.61
2019-05-30T07:44:00.093Z,1001.67
2019-05-30T07:45:00.076Z,1001.73
2019-05-30T07:46:00.069Z,1001.71
2019-05-30T07:47:00.054Z,1001.68
2019-05-30T07:48:00.147Z,1001.69
2019-05-30T07:49:00.039Z,1001.71
2019-05-30T07:50:00.019Z,1001.67
2019-05-30T07:51:00.007Z,1001.67
2019-05-30T07:52:00.000Z,1001.61
2019-05-30T07:53:00.015Z,1001.60
2019-05-30T07:53:59.990Z,1001.57
2019-05-30T07:54:59.963Z,1001.56
2019-05-30T07:55:59.950Z,1001.57
2019-05-30T07:56:59.941Z,1001.59
2019-05-30T07:57:59.945Z,1001.57
2019-05-30T07:58:59.916Z,1001.57
2019-05-30T07:59:59.929Z,1001.53
2019-05-30T08:00:59.895Z,1001.51
2019-05-30T08:01:59.880Z,1001.58
2019-05-30T08:02:59.875Z,1001.56
2019-05-30T08:03:59.867Z,1001.54
2019-05-30T08:04:59.847Z,1001.52
2019-05-30T08:05:59.856Z,1001.54
2019-05-30T08:06:59.828Z,1001.56
2019-05-30T08:07:59.815Z,1001.53
2019-05-30T08:08:59.803Z,1001.53
2019-05-30T08:09:59.796Z,1001.55
2019-05-30T08:11:08.870Z,1001.50
2019-05-30T08:12:00.789Z,1001.53
2019-05-30T08:12:59.757Z,1001.50
2019-05-30T08:13:59.747Z,1001.53
2019-05-30T08:14:59.736Z,1001.51
2019-05-30T08:15:59.722Z,1001.52
2019-05-30T08:16:59.712Z,1001.55
2019-05-30T08:17:59.719Z,1001.51
2019-05-30T08:18:59.688Z,1001.58
2019-05-30T08:19:59.676Z,1001.53
2019-05-30T08:20:59.670Z,1001.51
2019-05-30T08:21:59.655Z,1001.49
2019-05-30T08:22:59.645Z,1001.49
2019-05-30T08:23:59.656Z,1001.47
2019-05-30T08:24:59.621Z,1001.49
2019-05-30T08:25:59.609Z,1001.54
2019-05-30T08:26:59.599Z,1001.52
2019-05-30T08:27:59.590Z,1001.54
2019-05-30T08:28:59.573Z,1001.53
2019-05-30T08:29:59.586Z,1001.50
2019-05-30T08:30:59.563Z,1001.52
2019-05-30T08:31:59.540Z,1001.54
2019-05-30T08:32:59.530Z,1001.53
2019-05-30T08:33:59.521Z,1001.54
2019-05-30T08:34:59.507Z,1001.60
2019-05-30T08:35:59.517Z,1001.54
2019-05-30T08:36:59.483Z,1001.54
2019-05-30T08:37:59.468Z,1001.55
2019-05-30T08:38:59.461Z,1001.51
2019-05-30T08:39:59.453Z,1001.50
2019-05-30T08:40:59.435Z,1001.56
2019-05-30T08:41:59.449Z,1001.56
2019-05-30T08:42:59.413Z,1001.47
2019-05-30T08:43:59.404Z,1001.48
2019-05-30T08:44:59.388Z,1001.52
2019-05-30T08:45:59.387Z,1001.47
2019-05-30T08:46:59.366Z,1001.50
2019-05-30T08:47:59.374Z,1001.45
2019-05-30T08:49:01.725Z,1001.45
2019-05-30T08:49:59.334Z,1001.47
2019-05-30T08:50:59.338Z,1001.45
2019-05-30T08:51:59.309Z,1001.48
2019-05-30T08:52:59.302Z,1001.40
2019-05-30T08:53:59.316Z,1001.45
2019-05-30T08:54:59.274Z,1001.44
2019-05-30T08:55:59.263Z,1001.47
2019-05-30T08:56:59.259Z,1001.44
2019-05-30T08:57:59.242Z,1001.51
2019-05-30T08:58:59.229Z,1001.52
2019-05-30T08:59:59.252Z,1001.49
2019-05-30T09:00:59.210Z,1001.50
2019-05-30T09:01:59.200Z,1001.52
2019-05-30T09:02:59.183Z,1001.49
2019-05-30T09:03:59.173Z,1001.55
2019-05-30T09:04:59.163Z,1001.49
2019-05-30T09:06:04.008Z,1001.45
2019-05-30T09:07:00.147Z,1001.46
2019-05-30T09:07:59.125Z,1001.49
2019-05-30T09:08:59.115Z,1001.49
2019-05-30T09:09:59.103Z,1001.47
2019-05-30T09:10:59.104Z,1001.48
2019-05-30T09:11:59.104Z,1001.43
2019-05-30T09:12:59.073Z,1001.45
2019-05-30T09:13:59.063Z,1001.47
2019-05-30T09:14:59.049Z,1001.46
2019-05-30T09:15:59.103Z,1001.46
2019-05-30T09:16:59.025Z,1001.49
2019-05-30T09:17:59.037Z,1001.44
2019-05-30T09:18:59.005Z,1001.45
2019-05-30T09:19:58.988Z,1001.48
2019-05-30T09:20:58.981Z,1001.49
2019-05-30T09:21:58.968Z,1001.49
2019-05-30T09:22:58.954Z,1001.40
2019-05-30T09:24:01.390Z,1001.44
2019-05-30T09:24:58.932Z,1001.45
2019-05-30T09:25:58.921Z,1001.44
2019-05-30T09:26:58.909Z,1001.45
2019-05-30T09:27:58.898Z,1001.45
2019-05-30T09:28:58.887Z,1001.50
2019-05-30T09:29:58.904Z,1001.49
2019-05-30T09:30:58.875Z,1001.48
2019-05-30T09:31:58.854Z,1001.48
2019-05-30T09:32:58.842Z,1001.43
2019-05-30T09:33:58.846Z,1001.45
2019-05-30T09:34:58.820Z,1001.44
2019-05-30T09:36:12.148Z,1001.42
2019-05-30T09:36:59.798Z,1001.47
2019-05-30T09:37:58.787Z,1001.44
2019-05-30T09:38:58.780Z,1001.44
2019-05-30T09:39:58.768Z,1001.47
2019-05-30T09:40:58.756Z,1001.48
2019-05-30T09:41:58.761Z,1001.56
2019-05-30T09:42:58.740Z,1001.51
2019-05-30T09:43:58.733Z,1001.51
2019-05-30T09:44:58.713Z,1001.50
2019-05-30T09:45:58.697Z,1001.55
2019-05-30T09:46:58.690Z,1001.59
2019-05-30T09:47:58.719Z,1001.66
2019-05-30T09:48:58.672Z,1001.60
2019-05-30T09:49:58.658Z,1001.57
2019-05-30T09:50:58.644Z,1001.56
2019-05-30T09:51:58.631Z,1001.61
2019-05-30T09:52:58.624Z,1001.63
2019-05-30T09:53:58.635Z,1001.68
2019-05-30T09:54:58.605Z,1001.66
2019-05-30T09:55:58.586Z,1001.75
2019-05-30T09:56:58.575Z,1001.72
2019-05-30T09:57:58.567Z,1001.73
2019-05-30T09:58:58.555Z,1001.67
2019-05-30T09:59:58.566Z,1001.71
2019-05-30T10:00:58.544Z,1001.68
2019-05-30T10:01:58.520Z,1001.74
2019-05-30T10:02:58.509Z,1001.74
2019-05-30T10:03:58.498Z,1001.78
2019-05-30T10:04:58.484Z,1001.79
2019-05-30T10:05:58.495Z,1001.82
2019-05-30T10:06:58.460Z,1001.76
2019-05-30T10:07:58.457Z,1001.82
2019-05-30T10:08:58.446Z,1001.83
2019-05-30T10:09:58.431Z,1001.83
2019-05-30T10:10:58.414Z,1001.77
2019-05-30T10:11:58.426Z,1001.77
2019-05-30T10:12:58.404Z,1001.80
2019-05-30T10:13:58.379Z,1001.76
2019-05-30T10:14:58.374Z,1001.85
2019-05-30T10:15:58.358Z,1001.90
2019-05-30T10:16:58.351Z,1001.91
2019-05-30T10:17:58.361Z,1001.89
2019-05-30T10:18:58.326Z,1001.97
2019-05-30T10:19:58.314Z,1001.89
2019-05-30T10:20:58.307Z,1001.87
2019-05-30T10:21:58.291Z,1001.79
2019-05-30T10:22:58.283Z,1001.74
2019-05-30T10:23:58.297Z,1001.74
2019-05-30T10:24:58.259Z,1001.75
2019-05-30T10:25:58.248Z,1001.77
2019-05-30T10:26:58.239Z,1001.82
2019-05-30T10:27:58.231Z,1001.79
2019-05-30T10:28:58.217Z,1001.81
2019-05-30T10:29:58.238Z,1001.82
2019-05-30T10:30:59.461Z,1001.73
2019-05-30T10:31:58.182Z,1001.70
2019-05-30T10:32:58.175Z,1001.75
2019-05-30T10:33:58.167Z,1001.79
2019-05-30T10:34:58.147Z,1001.81
2019-05-30T10:35:58.158Z,1001.76
2019-05-30T10:36:58.129Z,1001.79
2019-05-30T10:37:58.115Z,1001.85
2019-05-30T10:38:58.107Z,1001.84
2019-05-30T10:39:59.224Z,1001.85
2019-05-30T10:40:58.083Z,1001.86
2019-05-30T10:41:58.099Z,1001.84
2019-05-30T10:42:58.056Z,1001.88
2019-05-30T10:43:58.050Z,1001.90
2019-05-30T10:44:58.038Z,1001.95
2019-05-30T10:45:58.031Z,1001.94
2019-05-30T10:46:58.027Z,1001.90
2019-05-30T10:47:58.028Z,1001.94
2019-05-30T10:48:57.992Z,1001.90
2019-05-30T10:49:57.980Z,1001.92
2019-05-30T10:50:57.971Z,1001.89
2019-05-30T10:51:59.308Z,1001.92
2019-05-30T10:52:57.948Z,1001.86
2019-05-30T10:53:57.956Z,1001.86
2019-05-30T10:54:57.924Z,1001.86
2019-05-30T10:55:57.924Z,1001.91
2019-05-30T10:56:57.905Z,1001.93
2019-05-30T10:57:59.577Z,1001.96
2019-05-30T10:58:57.881Z,1001.94
2019-05-30T10:59:57.891Z,1002.03
2019-05-30T11:00:58.124Z,1001.96
2019-05-30T11:01:57.845Z,1001.86
2019-05-30T11:02:57.834Z,1001.83
2019-05-30T11:03:57.824Z,1001.73
2019-05-30T11:04:57.812Z,1001.73
2019-05-30T11:05:57.822Z,1001.74
2019-05-30T11:07:10.745Z,1001.83
2019-05-30T11:08:03.876Z,1001.84
2019-05-30T11:08:58.764Z,1001.76
2019-05-30T11:09:57.777Z,1001.76
2019-05-30T11:10:57.754Z,1001.70
2019-05-30T11:11:57.766Z,1001.70
2019-05-30T11:13:05.600Z,1001.68
2019-05-30T11:13:58.710Z,1001.68
2019-05-30T11:14:57.914Z,1001.68
2019-05-30T11:15:57.691Z,1001.68
2019-05-30T11:16:57.828Z,1001.66
2019-05-30T11:17:57.788Z,1001.70
2019-05-30T11:18:57.971Z,1001.70
2019-05-30T11:19:57.979Z,1001.72
2019-05-30T11:20:58.601Z,1001.71
2019-05-30T11:21:58.172Z,1001.76
2019-05-30T11:22:58.485Z,1001.73
2019-05-30T11:23:58.333Z,1001.67
2019-05-30T11:24:59.347Z,1001.60
2019-05-30T11:25:58.804Z,1001.58
2019-05-30T11:26:58.884Z,1001.60
2019-05-30T11:27:58.842Z,1001.61
2019-05-30T11:28:58.652Z,1001.53
2019-05-30T11:29:58.912Z,1001.52
2019-05-30T11:30:58.874Z,1001.46
2019-05-30T11:31:57.510Z,1001.48
2019-05-30T11:32:57.509Z,1001.51
2019-05-30T11:33:57.510Z,1001.49
2019-05-30T11:34:57.492Z,1001.50
2019-05-30T11:35:57.491Z,1001.52
2019-05-30T11:36:57.457Z,1001.57
2019-05-30T11:37:57.445Z,1001.59
2019-05-30T11:38:57.499Z,1001.60
2019-05-30T11:39:57.429Z,1001.55
2019-05-30T11:40:57.613Z,1001.57
2019-05-30T11:41:57.677Z,1001.55
2019-05-30T11:42:57.497Z,1001.56
2019-05-30T11:43:57.868Z,1001.58
2019-05-30T11:44:57.578Z,1001.55
2019-05-30T11:45:57.794Z,1001.57
2019-05-30T11:46:57.749Z,1001.55
2019-05-30T11:47:58.040Z,1001.64
2019-05-30T11:48:57.893Z,1001.63
2019-05-30T11:49:57.752Z,1001.66
2019-05-30T11:50:57.927Z,1001.66
2019-05-30T11:51:57.872Z,1001.68
2019-05-30T11:52:57.948Z,1001.63
2019-05-30T11:53:57.997Z,1001.67
2019-05-30T11:54:58.096Z,1001.63
2019-05-30T11:55:58.310Z,1001.67
2019-05-30T11:56:58.129Z,1001.68
2019-05-30T11:57:58.342Z,1001.68
2019-05-30T11:58:58.067Z,1001.67
2019-05-30T11:59:58.328Z,1001.72
2019-05-30T12:00:58.312Z,1001.77
2019-05-30T12:01:58.380Z,1001.74
2019-05-30T12:02:57.162Z,1001.82
2019-05-30T12:03:57.148Z,1001.86
2019-05-30T12:04:57.144Z,1001.86
2019-05-30T12:05:57.140Z,1001.93
2019-05-30T12:06:57.108Z,1001.87
2019-05-30T12:07:57.112Z,1001.87
2019-05-30T12:08:57.091Z,1001.89